Pagrindinis puslapis
METAR-TAF:

METAR-TAF

Oro uostai :

Stambulas Atatiurkas, Turkija

platuma: 40-58N, ilguma: 028-49E, Aukštis: 48 m

Dabartinis oras

Ataskaita buvo paskelbta 30 minutes, ne 04:20 UTC
Vėjas 10 kt iš Šiaurės/Šiaurės Rytų
Temperatūra 7°C
Drėgmė 70%
Slėgis 1023 hPa
Matomumas 10 km arba daugiau
Mažai debesys ne aukštis 3000 ft
Su prošvaistėmis ne aukštis 9000 ft

METAR: LTBA 220420Z 02010KT 9999 FEW030 BKN090 07/02 Q1023 NOSIG RMK RWY17L 03009KT RWY05 04009KT RWY23 04011KT

Laikas: 07:50 (04:50 UTC)

Prognozė

Ataskaita buvo paskelbta 6 valandos ir 10 minutes, ne 22:40 UTC
Prognozė galioja nuo 22 metu 00 UTC su 23 metu 06 UTC
Vėjas 12 kt iš Šiaurės/Šiaurės Rytų
Matomumas 10 km arba daugiau
Išsisklaidę debesys ne aukštis 3000 ft
Su prošvaistėmis ne aukštis 9000 ft
Laikinai
nuo 22 metu 03 UTC su 22 metu 07 UTC
Išsisklaidę debesys ne aukštis 1200 ft
Su prošvaistėmis ne aukštis 2500 ft
lietus

TAF: LTBA 212240Z 2200/2306 03012KT 9999 SCT030 BKN090 TEMPO 2203/2207 -SHRA SCT012 BKN025

Orai ataskaitas ir orų prognozės (METAR, TAF).

turimą stotys yra geltonos ir raudonos taškus žemėlapyje.

Perkelti pele per norėdami pamatyti stoties vardą.

Tada spustelėkite, norėdami matyti oro stebėjimo ir prognozės.

Norėdami pakeisti žemėlapį: spustelėkite ant žalios mygtukų su juodo kryžiaus žemyn,; žalią mygtuką su brūkšneliu, jei norite nutolinti; arba žalių rodyklių gretimoms žemėlapius.


METAR-TAF: